Time;durP1;ratioP1;P1;durP2;ratioP2;P2;SDS_P1;SDS_P2;PMS_P1;PMS_P2;Temp;Humidity;BMP_temperature;BMP_pressure;BME280_temperature;BME280_humidity;BME280_pressure;Samples;Min_cycle;Max_cycle;Signal;HPM_P1;HPM_P2
2022/07/30 00:01:15;;;;;;;3.45;2.20;;;;;;;;;;5031013;28;20257;-15
2022/07/30 00:03:43;;;;;;;4.68;2.20;;;;;;;;;;5030905;28;20338;-16
2022/07/30 00:06:11;;;;;;;4.80;2.25;;;;;;;;;;5031544;28;20239;-16
2022/07/30 00:08:38;;;;;;;2.63;2.20;;;;;;;;;;5031661;28;20241;-16
2022/07/30 00:11:06;;;;;;;6.75;2.33;;;;;;;;;;5031540;28;20231;-16
2022/07/30 00:13:33;;;;;;;6.65;3.00;;;;;;;;;;5030276;28;20244;-16
2022/07/30 00:16:00;;;;;;;3.22;2.30;;;;;;;;;;5031325;28;20640;-16
2022/07/30 00:18:28;;;;;;;4.05;2.58;;;;;;;;;;5031270;28;20231;-16
2022/07/30 00:20:56;;;;;;;5.72;2.78;;;;;;;;;;5030996;28;20241;-16
2022/07/30 00:23:24;;;;;;;6.18;2.30;;;;;;;;;;5030966;28;20257;-16
2022/07/30 00:25:53;;;;;;;5.55;2.50;;;;;;;;;;5030571;28;20687;-16
2022/07/30 00:28:20;;;;;;;4.97;2.33;;;;;;;;;;5031036;28;21010;-16
2022/07/30 00:30:47;;;;;;;3.08;2.22;;;;;;;;;;5021240;28;20227;-16
2022/07/30 00:33:21;;;;;;;4.72;2.20;;;;;;;;;;5030851;28;20706;-16
2022/07/30 00:35:48;;;;;;;4.65;2.58;;;;;;;;;;5030463;28;20234;-16
2022/07/30 00:38:17;;;;;;;4.55;2.58;;;;;;;;;;5030350;28;20237;-16
2022/07/30 00:40:45;;;;;;;5.90;2.40;;;;;;;;;;5031146;28;21051;-16
2022/07/30 00:43:13;;;;;;;5.55;2.38;;;;;;;;;;5031080;28;20970;-16
2022/07/30 00:45:41;;;;;;;5.07;2.67;;;;;;;;;;5031301;28;21072;-16
2022/07/30 00:48:09;;;;;;;4.90;2.70;;;;;;;;;;5029675;28;20227;-16
2022/07/30 00:50:36;;;;;;;5.72;2.58;;;;;;;;;;5031036;28;20235;-16
2022/07/30 00:53:03;;;;;;;4.50;2.90;;;;;;;;;;5030817;28;20258;-16
2022/07/30 00:55:32;;;;;;;4.97;2.40;;;;;;;;;;5031040;28;20230;-16
2022/07/30 00:57:59;;;;;;;2.63;2.03;;;;;;;;;;5029783;28;20261;-16
2022/07/30 01:00:28;;;;;;;4.80;2.33;;;;;;;;;;5025872;28;20241;-16
2022/07/30 01:02:57;;;;;;;2.88;2.17;;;;;;;;;;5030414;28;20238;-16
2022/07/30 01:05:24;;;;;;;4.07;2.20;;;;;;;;;;5030772;28;20223;-16
2022/07/30 01:07:51;;;;;;;4.28;2.50;;;;;;;;;;5027287;28;20235;-16
2022/07/30 01:10:19;;;;;;;5.75;2.72;;;;;;;;;;5029128;28;20226;-16
2022/07/30 01:12:47;;;;;;;5.72;2.95;;;;;;;;;;5029129;28;20235;-16
2022/07/30 01:15:15;;;;;;;4.70;2.70;;;;;;;;;;5028468;28;20234;-16
2022/07/30 01:17:43;;;;;;;6.72;2.50;;;;;;;;;;5029119;28;20230;-16
2022/07/30 01:20:15;;;;;;;4.00;3.30;;;;;;;;;;5025184;28;20243;-16
2022/07/30 01:22:44;;;;;;;4.05;3.00;;;;;;;;;;5029937;28;20242;-15
2022/07/30 01:25:14;;;;;;;5.80;2.80;;;;;;;;;;5030299;28;20222;-16
2022/07/30 01:27:42;;;;;;;6.60;2.70;;;;;;;;;;5029730;28;20238;-15
2022/07/30 01:30:10;;;;;;;5.10;2.67;;;;;;;;;;5017992;28;20256;-16
2022/07/30 01:32:38;;;;;;;2.72;2.40;;;;;;;;;;5030648;28;20237;-16
2022/07/30 01:35:06;;;;;;;4.47;2.88;;;;;;;;;;5030169;28;20239;-16
2022/07/30 01:37:34;;;;;;;4.07;2.75;;;;;;;;;;5030299;28;20227;-16
2022/07/30 01:40:01;;;;;;;6.53;2.95;;;;;;;;;;5030256;28;20241;-16
2022/07/30 01:42:29;;;;;;;6.32;3.03;;;;;;;;;;5029339;28;20253;-16
2022/07/30 01:44:58;;;;;;;3.47;2.33;;;;;;;;;;5029995;28;20721;-16
2022/07/30 01:47:25;;;;;;;5.28;2.88;;;;;;;;;;5029991;28;20238;-16
2022/07/30 01:49:53;;;;;;;4.80;3.00;;;;;;;;;;5030286;28;20231;-16
2022/07/30 01:52:20;;;;;;;5.43;3.03;;;;;;;;;;5029312;28;20266;-16
2022/07/30 01:54:48;;;;;;;5.78;3.53;;;;;;;;;;5029919;28;20334;-16
2022/07/30 01:57:16;;;;;;;5.72;3.10;;;;;;;;;;5030255;28;20609;-16
2022/07/30 01:59:43;;;;;;;5.68;2.92;;;;;;;;;;5023560;28;20234;-16
2022/07/30 02:02:12;;;;;;;4.45;2.80;;;;;;;;;;5030093;28;20231;-16
2022/07/30 02:04:44;;;;;;;4.13;2.40;;;;;;;;;;5028436;28;20696;-16
2022/07/30 02:07:13;;;;;;;3.58;2.63;;;;;;;;;;5029586;28;20313;-16
2022/07/30 02:09:41;;;;;;;4.30;2.53;;;;;;;;;;5029518;28;20241;-16
2022/07/30 02:12:29;;;;;;;5.55;2.53;;;;;;;;;;5032914;28;20281;-16
2022/07/30 02:14:59;;;;;;;3.67;2.47;;;;;;;;;;5019727;28;20241;-16
2022/07/30 02:17:29;;;;;;;3.65;2.53;;;;;;;;;;5032221;28;20227;-16
2022/07/30 02:20:06;;;;;;;3.78;2.70;;;;;;;;;;5033155;28;20234;-16
2022/07/30 02:22:37;;;;;;;4.68;2.75;;;;;;;;;;5031317;28;20744;-15
2022/07/30 02:25:05;;;;;;;4.13;2.47;;;;;;;;;;5030395;28;20231;-16
2022/07/30 02:27:33;;;;;;;3.33;2.65;;;;;;;;;;5031797;28;20267;-16
2022/07/30 02:30:04;;;;;;;3.35;2.38;;;;;;;;;;5033619;28;20233;-16
2022/07/30 02:32:35;;;;;;;3.88;2.72;;;;;;;;;;5027519;28;20266;-15
2022/07/30 02:35:04;;;;;;;4.05;2.63;;;;;;;;;;5027162;28;20254;-16
2022/07/30 02:37:32;;;;;;;5.35;2.10;;;;;;;;;;5024939;28;20241;-16
2022/07/30 02:40:11;;;;;;;4.20;2.50;;;;;;;;;;5019064;28;20245;-16
2022/07/30 02:42:39;;;;;;;4.22;2.45;;;;;;;;;;5032355;28;20241;-16
2022/07/30 02:45:06;;;;;;;7.45;2.72;;;;;;;;;;5032636;28;20230;-16
2022/07/30 02:47:35;;;;;;;3.83;2.75;;;;;;;;;;5031990;28;20235;-15
2022/07/30 02:50:03;;;;;;;4.55;2.75;;;;;;;;;;5032631;28;20231;-16
2022/07/30 02:52:30;;;;;;;4.55;2.90;;;;;;;;;;5032589;28;20227;-16
2022/07/30 02:54:58;;;;;;;4.50;2.70;;;;;;;;;;5031677;28;20234;-16
2022/07/30 02:57:25;;;;;;;4.72;3.33;;;;;;;;;;5022592;28;20268;-15
2022/07/30 02:59:53;;;;;;;4.20;2.80;;;;;;;;;;5031577;28;20716;-16
2022/07/30 03:02:20;;;;;;;5.32;2.63;;;;;;;;;;5031161;28;20230;-16
2022/07/30 03:04:57;;;;;;;4.57;2.80;;;;;;;;;;5032882;28;20230;-15
2022/07/30 03:07:24;;;;;;;5.60;2.78;;;;;;;;;;5017927;28;20258;-15
2022/07/30 03:09:52;;;;;;;5.03;2.50;;;;;;;;;;5031659;28;20258;-16
2022/07/30 03:12:19;;;;;;;3.03;2.60;;;;;;;;;;5032520;28;20227;-16
2022/07/30 03:14:47;;;;;;;4.38;3.50;;;;;;;;;;5032161;28;20253;-16
2022/07/30 03:17:14;;;;;;;3.63;3.10;;;;;;;;;;5032078;28;20694;-16
2022/07/30 03:19:42;;;;;;;5.85;2.85;;;;;;;;;;5032429;28;20326;-16
2022/07/30 03:22:11;;;;;;;4.60;2.95;;;;;;;;;;5031092;28;20243;-16
2022/07/30 03:24:38;;;;;;;4.68;3.13;;;;;;;;;;5032182;28;20346;-16
2022/07/30 03:27:09;;;;;;;4.57;2.90;;;;;;;;;;5028831;28;20237;-16
2022/07/30 03:29:37;;;;;;;4.05;3.15;;;;;;;;;;5032235;28;20227;-16
2022/07/30 03:32:05;;;;;;;5.05;3.35;;;;;;;;;;5030419;28;20227;-15
2022/07/30 03:34:33;;;;;;;6.95;3.22;;;;;;;;;;5031742;28;20797;-15
2022/07/30 03:37:01;;;;;;;4.32;3.35;;;;;;;;;;5031906;28;20252;-15
2022/07/30 03:39:30;;;;;;;5.13;3.20;;;;;;;;;;5031963;28;20226;-16
2022/07/30 03:41:58;;;;;;;5.90;3.42;;;;;;;;;;5032318;28;20318;-15
2022/07/30 03:44:25;;;;;;;3.80;3.08;;;;;;;;;;5030883;28;20223;-16
2022/07/30 03:46:52;;;;;;;4.07;3.13;;;;;;;;;;5031824;28;20235;-16
2022/07/30 03:49:21;;;;;;;4.63;3.70;;;;;;;;;;5032000;28;20262;-16
2022/07/30 03:51:49;;;;;;;4.80;3.28;;;;;;;;;;5031986;28;20227;-16
2022/07/30 03:54:16;;;;;;;4.25;3.20;;;;;;;;;;5030939;28;20230;-16
2022/07/30 03:56:45;;;;;;;3.95;3.28;;;;;;;;;;5030226;28;20230;-15
2022/07/30 03:59:13;;;;;;;4.20;3.17;;;;;;;;;;5031649;28;20229;-16
2022/07/30 04:01:40;;;;;;;6.43;3.10;;;;;;;;;;5031272;28;20234;-15
2022/07/30 04:04:08;;;;;;;4.97;3.38;;;;;;;;;;5031484;28;20241;-15
2022/07/30 04:06:38;;;;;;;4.72;2.95;;;;;;;;;;5031548;28;20278;-15
2022/07/30 04:09:06;;;;;;;3.63;3.20;;;;;;;;;;5031492;28;20262;-15
2022/07/30 04:11:34;;;;;;;6.53;3.70;;;;;;;;;;5031486;28;20703;-16
2022/07/30 04:14:09;;;;;;;5.00;3.55;;;;;;;;;;5031542;28;20239;-16
2022/07/30 04:16:37;;;;;;;4.30;3.63;;;;;;;;;;5030804;28;20249;-16
2022/07/30 04:19:12;;;;;;;4.68;3.33;;;;;;;;;;5031701;28;20231;-16
2022/07/30 04:21:40;;;;;;;3.45;3.13;;;;;;;;;;5030284;28;20742;-16
2022/07/30 04:24:07;;;;;;;6.65;3.20;;;;;;;;;;5031634;28;20227;-15
2022/07/30 04:26:35;;;;;;;4.35;3.10;;;;;;;;;;5020739;28;20231;-15
2022/07/30 04:29:04;;;;;;;3.15;2.85;;;;;;;;;;5030175;28;20230;-16
2022/07/30 04:31:34;;;;;;;4.15;3.03;;;;;;;;;;5031275;28;20238;-16
2022/07/30 04:34:07;;;;;;;3.83;3.40;;;;;;;;;;5030801;28;20230;-16
2022/07/30 04:36:35;;;;;;;4.55;3.15;;;;;;;;;;5031094;28;20745;-15
2022/07/30 04:39:02;;;;;;;4.45;3.60;;;;;;;;;;5029977;28;20223;-16
2022/07/30 04:41:30;;;;;;;4.07;3.67;;;;;;;;;;5030840;28;20319;-16
2022/07/30 04:44:15;;;;;;;3.75;3.25;;;;;;;;;;5031049;28;20231;-16
2022/07/30 04:46:44;;;;;;;6.60;3.20;;;;;;;;;;5030594;28;20257;-15
2022/07/30 04:49:11;;;;;;;4.55;3.08;;;;;;;;;;5030127;28;21071;-16
2022/07/30 04:51:39;;;;;;;4.28;2.92;;;;;;;;;;5030495;28;20235;-16
2022/07/30 04:54:06;;;;;;;3.63;2.92;;;;;;;;;;5030842;28;20235;-15
2022/07/30 04:56:34;;;;;;;5.03;3.22;;;;;;;;;;5019178;28;20245;-15
2022/07/30 04:59:01;;;;;;;4.43;2.92;;;;;;;;;;5021431;28;20237;-16
2022/07/30 05:01:30;;;;;;;3.85;2.95;;;;;;;;;;5029948;28;20230;-15
2022/07/30 05:04:08;;;;;;;4.03;2.67;;;;;;;;;;5030786;28;20915;-16
2022/07/30 05:06:36;;;;;;;5.13;2.80;;;;;;;;;;5031013;28;20226;-16
2022/07/30 05:09:03;;;;;;;4.50;2.90;;;;;;;;;;5031116;28;20231;-16
2022/07/30 05:11:31;;;;;;;5.55;3.13;;;;;;;;;;5029290;28;20616;-16
2022/07/30 05:13:58;;;;;;;5.30;3.80;;;;;;;;;;5030677;28;20234;-16
2022/07/30 05:16:26;;;;;;;6.65;3.30;;;;;;;;;;5030474;28;20235;-16
2022/07/30 05:18:53;;;;;;;6.30;2.70;;;;;;;;;;5030302;28;20285;-16
2022/07/30 05:21:22;;;;;;;4.82;2.95;;;;;;;;;;5029500;28;20235;-15
2022/07/30 05:23:54;;;;;;;4.38;2.70;;;;;;;;;;5030558;28;20238;-16
2022/07/30 05:26:22;;;;;;;5.03;3.10;;;;;;;;;;5029549;28;20227;-15
2022/07/30 05:28:54;;;;;;;6.93;3.30;;;;;;;;;;5030419;28;21055;-16
2022/07/30 05:31:23;;;;;;;7.47;3.75;;;;;;;;;;5030398;28;20231;-16
2022/07/30 05:33:51;;;;;;;9.15;3.75;;;;;;;;;;5029744;28;20239;-16
2022/07/30 05:36:18;;;;;;;3.75;2.97;;;;;;;;;;5029684;28;20300;-15
2022/07/30 05:38:47;;;;;;;3.83;3.47;;;;;;;;;;5030279;28;20237;-16
2022/07/30 05:41:14;;;;;;;5.80;3.60;;;;;;;;;;5030111;28;20257;-16
2022/07/30 05:43:59;;;;;;;6.07;3.63;;;;;;;;;;5029394;28;20238;-15
2022/07/30 05:46:26;;;;;;;5.78;3.38;;;;;;;;;;5032371;28;20231;-16
2022/07/30 05:48:54;;;;;;;4.70;3.28;;;;;;;;;;5033824;28;20714;-16
2022/07/30 05:51:21;;;;;;;5.25;3.25;;;;;;;;;;5033658;28;20713;-15
2022/07/30 05:53:50;;;;;;;8.85;3.50;;;;;;;;;;5033718;28;20708;-16
2022/07/30 05:56:17;;;;;;;4.47;3.40;;;;;;;;;;5021285;28;20231;-16
2022/07/30 05:58:45;;;;;;;6.35;3.47;;;;;;;;;;5033583;28;20686;-16
2022/07/30 06:01:12;;;;;;;6.32;3.63;;;;;;;;;;5032985;28;20235;-16
2022/07/30 06:03:40;;;;;;;5.45;3.72;;;;;;;;;;5019821;28;20231;-16
2022/07/30 06:06:07;;;;;;;6.22;3.70;;;;;;;;;;5033012;28;20314;-16
2022/07/30 06:08:35;;;;;;;8.40;4.07;;;;;;;;;;5033432;28;20231;-16
2022/07/30 06:11:03;;;;;;;7.20;3.65;;;;;;;;;;5033288;28;20234;-15
2022/07/30 06:13:31;;;;;;;7.00;3.50;;;;;;;;;;5033208;28;20237;-16
2022/07/30 06:15:58;;;;;;;7.25;3.70;;;;;;;;;;5033491;28;20242;-15
2022/07/30 06:18:26;;;;;;;4.50;3.10;;;;;;;;;;5032657;28;20234;-16
2022/07/30 06:20:54;;;;;;;4.93;3.40;;;;;;;;;;5033555;28;21114;-15
2022/07/30 06:23:21;;;;;;;4.05;2.78;;;;;;;;;;5032679;28;20247;-16
2022/07/30 06:25:49;;;;;;;6.03;3.80;;;;;;;;;;5032433;28;20233;-16
2022/07/30 06:28:18;;;;;;;4.63;3.80;;;;;;;;;;5032204;28;20273;-15
2022/07/30 06:31:06;;;;;;;6.50;3.67;;;;;;;;;;5030814;28;20235;-16
2022/07/30 06:33:33;;;;;;;4.10;3.35;;;;;;;;;;5032847;28;20241;-16
2022/07/30 06:36:00;;;;;;;6.28;4.05;;;;;;;;;;5032497;28;20350;-15
2022/07/30 06:38:28;;;;;;;6.30;3.28;;;;;;;;;;5032226;28;20237;-16
2022/07/30 06:40:55;;;;;;;8.43;3.70;;;;;;;;;;5032690;28;20245;-16
2022/07/30 06:43:30;;;;;;;4.03;3.47;;;;;;;;;;5033131;28;20231;-16
2022/07/30 06:45:57;;;;;;;6.72;3.17;;;;;;;;;;5032561;28;20241;-15
2022/07/30 06:48:25;;;;;;;7.20;3.10;;;;;;;;;;5032727;28;20292;-16
2022/07/30 06:50:53;;;;;;;10.13;3.42;;;;;;;;;;5031476;28;20322;-16
2022/07/30 06:53:20;;;;;;;5.00;3.10;;;;;;;;;;5032880;28;20227;-15
2022/07/30 06:55:49;;;;;;;4.97;3.00;;;;;;;;;;5031117;28;20239;-15
2022/07/30 06:58:16;;;;;;;7.32;3.08;;;;;;;;;;5032404;28;20243;-16
2022/07/30 07:00:53;;;;;;;6.07;3.45;;;;;;;;;;5031511;28;20408;-15
2022/07/30 07:03:20;;;;;;;4.95;3.05;;;;;;;;;;5032487;28;20250;-15
2022/07/30 07:05:48;;;;;;;6.07;3.28;;;;;;;;;;5032985;28;20657;-15
2022/07/30 07:08:15;;;;;;;8.25;3.72;;;;;;;;;;5032134;28;20239;-15
2022/07/30 07:10:42;;;;;;;5.63;3.33;;;;;;;;;;5032594;28;20950;-15
2022/07/30 07:13:10;;;;;;;3.90;2.90;;;;;;;;;;5031536;28;20223;-15
2022/07/30 07:15:37;;;;;;;7.15;3.33;;;;;;;;;;5031361;28;20249;-15
2022/07/30 07:18:06;;;;;;;9.02;3.30;;;;;;;;;;5032216;28;20239;-14
2022/07/30 07:20:33;;;;;;;5.72;2.88;;;;;;;;;;5032689;28;21071;-15
2022/07/30 07:23:01;;;;;;;5.03;3.20;;;;;;;;;;5030974;28;21078;-15
2022/07/30 07:25:35;;;;;;;5.00;3.17;;;;;;;;;;5031279;28;20254;-15
2022/07/30 07:28:03;;;;;;;6.43;2.88;;;;;;;;;;5032002;28;20235;-14
2022/07/30 07:30:39;;;;;;;6.47;2.97;;;;;;;;;;5031918;28;20229;-14
2022/07/30 07:33:08;;;;;;;4.35;3.13;;;;;;;;;;5031712;28;20341;-15
2022/07/30 07:35:35;;;;;;;5.68;2.90;;;;;;;;;;5032247;28;20270;-15
2022/07/30 07:38:15;;;;;;;7.13;3.47;;;;;;;;;;5032074;28;20949;-15
2022/07/30 07:40:42;;;;;;;6.05;3.47;;;;;;;;;;5031402;28;20223;-15
2022/07/30 07:43:10;;;;;;;6.10;3.03;;;;;;;;;;5032226;28;20315;-15
2022/07/30 07:45:38;;;;;;;5.10;2.70;;;;;;;;;;5027590;28;20238;-15
2022/07/30 07:48:05;;;;;;;6.07;2.72;;;;;;;;;;5031567;28;20234;-15
2022/07/30 07:50:34;;;;;;;5.30;2.90;;;;;;;;;;5031966;28;20237;-15
2022/07/30 07:53:02;;;;;;;6.32;3.20;;;;;;;;;;5031383;28;20718;-15
2022/07/30 07:55:29;;;;;;;5.22;3.35;;;;;;;;;;5031032;28;20232;-15
2022/07/30 07:57:59;;;;;;;3.97;2.70;;;;;;;;;;5031617;28;20242;-15
2022/07/30 08:00:26;;;;;;;4.90;2.80;;;;;;;;;;5031553;28;20227;-15
2022/07/30 08:02:54;;;;;;;8.80;2.65;;;;;;;;;;5031609;28;21125;-15
2022/07/30 08:05:22;;;;;;;5.13;2.67;;;;;;;;;;5031128;28;20239;-15
2022/07/30 08:07:51;;;;;;;5.78;2.83;;;;;;;;;;5030082;28;20235;-15
2022/07/30 08:10:18;;;;;;;6.72;2.88;;;;;;;;;;5031255;28;20231;-15
2022/07/30 08:12:46;;;;;;;6.78;3.30;;;;;;;;;;5031581;28;20227;-15
2022/07/30 08:15:13;;;;;;;4.53;2.80;;;;;;;;;;5018677;28;20231;-15
2022/07/30 08:17:45;;;;;;;7.50;2.72;;;;;;;;;;5030737;28;20769;-15
2022/07/30 08:20:13;;;;;;;7.63;3.22;;;;;;;;;;5030833;28;20949;-15
2022/07/30 08:22:40;;;;;;;6.35;2.83;;;;;;;;;;5030813;28;20254;-15
2022/07/30 08:25:09;;;;;;;4.43;2.80;;;;;;;;;;5031675;28;20338;-15
2022/07/30 08:27:37;;;;;;;9.40;3.03;;;;;;;;;;5031824;28;20223;-15
2022/07/30 08:30:06;;;;;;;3.88;2.63;;;;;;;;;;5029730;28;20289;-15
2022/07/30 08:32:34;;;;;;;8.38;2.95;;;;;;;;;;5030992;28;20227;-15
2022/07/30 08:35:01;;;;;;;5.43;2.53;;;;;;;;;;5030902;28;20239;-15
2022/07/30 08:37:29;;;;;;;4.30;2.58;;;;;;;;;;5031101;28;20289;-15
2022/07/30 08:39:56;;;;;;;4.55;2.25;;;;;;;;;;5030083;28;20258;-15
2022/07/30 08:42:25;;;;;;;5.97;2.60;;;;;;;;;;5030928;28;20237;-15
2022/07/30 08:44:52;;;;;;;3.90;2.38;;;;;;;;;;5020505;28;20289;-15
2022/07/30 08:47:20;;;;;;;7.05;2.78;;;;;;;;;;5030928;28;20237;-15
2022/07/30 08:49:48;;;;;;;4.03;2.42;;;;;;;;;;5031264;28;20235;-15
2022/07/30 08:52:15;;;;;;;3.10;2.03;;;;;;;;;;5030171;28;20223;-15
2022/07/30 08:54:43;;;;;;;4.28;2.47;;;;;;;;;;5030036;28;20275;-15
2022/07/30 08:57:11;;;;;;;7.18;2.72;;;;;;;;;;5030696;28;20288;-15
2022/07/30 08:59:40;;;;;;;4.20;2.60;;;;;;;;;;5030270;28;20223;-15
2022/07/30 09:02:27;;;;;;;4.05;2.53;;;;;;;;;;5030061;28;20605;-15
2022/07/30 09:04:56;;;;;;;4.00;2.20;;;;;;;;;;5030651;28;20701;-15
2022/07/30 09:07:23;;;;;;;6.63;2.42;;;;;;;;;;5030663;28;20322;-15
2022/07/30 09:09:50;;;;;;;5.22;2.35;;;;;;;;;;5030779;28;20253;-15
2022/07/30 09:12:33;;;;;;;3.70;2.17;;;;;;;;;;5029526;28;20227;-15
2022/07/30 09:15:03;;;;;;;5.95;2.45;;;;;;;;;;5029450;28;20234;-15
2022/07/30 09:17:43;;;;;;;3.78;2.45;;;;;;;;;;5022943;28;20317;-15
2022/07/30 09:20:11;;;;;;;2.65;1.88;;;;;;;;;;5031521;28;20231;-15
2022/07/30 09:22:41;;;;;;;3.92;2.10;;;;;;;;;;5033348;28;20242;-15
2022/07/30 09:25:09;;;;;;;4.57;2.13;;;;;;;;;;5033262;28;20236;-15
2022/07/30 09:27:43;;;;;;;5.75;2.50;;;;;;;;;;5034147;28;20746;-15
2022/07/30 09:30:12;;;;;;;6.22;2.20;;;;;;;;;;5033728;28;20233;-15
2022/07/30 09:32:49;;;;;;;2.13;1.77;;;;;;;;;;5034319;28;20234;-15
2022/07/30 09:35:17;;;;;;;3.63;2.20;;;;;;;;;;5032858;28;20237;-15
2022/07/30 09:37:45;;;;;;;7.50;2.28;;;;;;;;;;5033578;28;21016;-15
2022/07/30 09:40:13;;;;;;;3.72;1.98;;;;;;;;;;5033567;28;20227;-15
2022/07/30 09:42:40;;;;;;;4.15;2.03;;;;;;;;;;5033506;28;20281;-15
2022/07/30 09:45:08;;;;;;;6.28;2.30;;;;;;;;;;5032012;28;20338;-15
2022/07/30 09:47:37;;;;;;;3.70;2.13;;;;;;;;;;5033408;28;20233;-15
2022/07/30 09:50:05;;;;;;;6.97;2.33;;;;;;;;;;5033396;28;20696;-15
2022/07/30 09:52:34;;;;;;;5.90;1.90;;;;;;;;;;5033913;28;20239;-15
2022/07/30 09:55:01;;;;;;;3.58;2.10;;;;;;;;;;5033638;28;20233;-15
2022/07/30 09:57:29;;;;;;;3.50;2.00;;;;;;;;;;5032741;28;21062;-16
2022/07/30 10:00:00;;;;;;;3.97;2.10;;;;;;;;;;5033371;28;20657;-15
2022/07/30 10:02:30;;;;;;;3.47;2.30;;;;;;;;;;5033512;28;20270;-16
2022/07/30 10:05:10;;;;;;;5.45;2.03;;;;;;;;;;5033758;28;20319;-16
2022/07/30 10:07:46;;;;;;;4.22;2.13;;;;;;;;;;5032823;28;20234;-16
2022/07/30 10:10:14;;;;;;;5.03;1.80;;;;;;;;;;5032548;28;20235;-16
2022/07/30 10:12:43;;;;;;;5.22;1.80;;;;;;;;;;5033121;28;20235;-15
2022/07/30 10:15:12;;;;;;;4.55;2.20;;;;;;;;;;5030295;28;20231;-16
2022/07/30 10:17:40;;;;;;;5.55;2.20;;;;;;;;;;5033395;28;20773;-16
2022/07/30 10:20:10;;;;;;;3.38;2.13;;;;;;;;;;5032797;28;20679;-16
2022/07/30 10:22:38;;;;;;;3.25;2.30;;;;;;;;;;5032392;28;20788;-16
2022/07/30 10:25:06;;;;;;;3.20;1.88;;;;;;;;;;5033022;28;20685;-16
2022/07/30 10:27:33;;;;;;;3.30;1.90;;;;;;;;;;5033233;28;20643;-16
2022/07/30 10:30:01;;;;;;;4.30;2.08;;;;;;;;;;5039051;28;20230;-16
2022/07/30 10:32:30;;;;;;;3.65;1.98;;;;;;;;;;5027516;28;20239;-16
2022/07/30 10:34:59;;;;;;;3.78;2.10;;;;;;;;;;5032416;28;20226;-16
2022/07/30 10:37:28;;;;;;;3.65;1.80;;;;;;;;;;5032543;28;20239;-16
2022/07/30 10:39:56;;;;;;;4.80;2.10;;;;;;;;;;5032212;28;20234;-15
2022/07/30 10:42:28;;;;;;;3.90;1.85;;;;;;;;;;5032040;28;20261;-16
2022/07/30 10:45:13;;;;;;;4.20;2.00;;;;;;;;;;5032931;28;20237;-16
2022/07/30 10:47:44;;;;;;;3.50;2.03;;;;;;;;;;5027793;28;20690;-16
2022/07/30 10:50:16;;;;;;;3.38;2.08;;;;;;;;;;5032758;28;20230;-16
2022/07/30 10:52:49;;;;;;;3.13;1.90;;;;;;;;;;5031860;28;20235;-16
2022/07/30 10:55:17;;;;;;;3.78;2.03;;;;;;;;;;5032679;28;20259;-16
2022/07/30 10:58:00;;;;;;;3.17;1.70;;;;;;;;;;5032563;28;20230;-16
2022/07/30 11:00:28;;;;;;;4.32;1.70;;;;;;;;;;5019514;28;20239;-16
2022/07/30 11:03:15;;;;;;;2.13;1.48;;;;;;;;;;5032624;28;20242;-16
2022/07/30 11:05:42;;;;;;;3.65;1.92;;;;;;;;;;5021430;28;20339;-16
2022/07/30 11:08:30;;;;;;;10.52;2.10;;;;;;;;;;5032267;28;20231;-16
2022/07/30 11:11:03;;;;;;;4.07;2.00;;;;;;;;;;5027303;28;20253;-16
2022/07/30 11:13:50;;;;;;;5.05;1.75;;;;;;;;;;5031672;28;20230;-16
2022/07/30 11:16:19;;;;;;;3.28;1.40;;;;;;;;;;5032410;28;20235;-16
2022/07/30 11:19:02;;;;;;;2.72;1.67;;;;;;;;;;5032114;28;20668;-15
2022/07/30 11:22:12;;;;;;;6.30;1.98;;;;;;;;;;5031931;28;20234;-16
2022/07/30 11:24:46;;;;;;;1.90;1.63;;;;;;;;;;5031739;28;20702;-16
2022/07/30 11:27:30;;;;;;;3.30;1.73;;;;;;;;;;5031688;28;20235;-16
2022/07/30 11:30:02;;;;;;;3.72;1.90;;;;;;;;;;5032255;28;20227;-16
2022/07/30 11:32:30;;;;;;;1.77;1.40;;;;;;;;;;5031955;28;20318;-15
2022/07/30 11:35:11;;;;;;;3.92;1.90;;;;;;;;;;5031126;28;20564;-16
2022/07/30 11:37:58;;;;;;;3.45;1.58;;;;;;;;;;5031923;28;20274;-16
2022/07/30 11:40:30;;;;;;;2.85;1.60;;;;;;;;;;5023311;28;20247;-16
2022/07/30 11:43:15;;;;;;;2.70;1.60;;;;;;;;;;5030704;28;20235;-16
2022/07/30 11:45:42;;;;;;;1.98;1.65;;;;;;;;;;5031429;28;20241;-16
2022/07/30 11:48:11;;;;;;;6.00;1.55;;;;;;;;;;5032304;28;20238;-16
2022/07/30 11:50:38;;;;;;;2.35;1.70;;;;;;;;;;5031906;28;20226;-16
2022/07/30 11:53:06;;;;;;;1.55;1.40;;;;;;;;;;5031185;28;20245;-16
2022/07/30 11:55:35;;;;;;;2.15;1.42;;;;;;;;;;5031749;28;20231;-16
2022/07/30 11:58:04;;;;;;;4.88;1.60;;;;;;;;;;5031152;28;20233;-16
2022/07/30 12:00:35;;;;;;;2.28;1.67;;;;;;;;;;5031421;28;20247;-16
2022/07/30 12:03:10;;;;;;;2.95;1.50;;;;;;;;;;5030852;28;20235;-16
2022/07/30 12:05:37;;;;;;;4.63;1.50;;;;;;;;;;5031626;28;20310;-16
2022/07/30 12:08:06;;;;;;;3.72;1.60;;;;;;;;;;5024900;28;20271;-16
2022/07/30 12:10:37;;;;;;;2.55;1.50;;;;;;;;;;5032055;28;21007;-15
2022/07/30 12:13:08;;;;;;;2.45;1.58;;;;;;;;;;5031536;28;20330;-16
2022/07/30 12:15:36;;;;;;;1.65;1.10;;;;;;;;;;5031597;28;20231;-16
2022/07/30 12:18:03;;;;;;;2.17;1.30;;;;;;;;;;5030927;28;20227;-16
2022/07/30 12:20:54;;;;;;;2.85;1.45;;;;;;;;;;5031265;28;20599;-16
2022/07/30 12:23:25;;;;;;;4.75;1.70;;;;;;;;;;5030872;28;20712;-16
2022/07/30 12:25:54;;;;;;;2.00;1.40;;;;;;;;;;5031184;28;21076;-16
2022/07/30 12:28:21;;;;;;;4.22;1.45;;;;;;;;;;5031234;28;20325;-16
2022/07/30 12:30:49;;;;;;;4.55;1.73;;;;;;;;;;5030474;28;20237;-16
2022/07/30 12:33:17;;;;;;;3.25;1.40;;;;;;;;;;5031661;28;20223;-16
2022/07/30 12:35:44;;;;;;;3.35;1.50;;;;;;;;;;5031322;28;20624;-16
2022/07/30 12:38:12;;;;;;;1.55;1.20;;;;;;;;;;5030731;28;20226;-16
2022/07/30 12:40:53;;;;;;;2.60;1.40;;;;;;;;;;5030279;28;20242;-16
2022/07/30 12:43:39;;;;;;;2.60;1.35;;;;;;;;;;5017339;28;20581;-16
2022/07/30 12:46:07;;;;;;;3.10;1.38;;;;;;;;;;5031017;28;20754;-16
2022/07/30 12:48:51;;;;;;;9.20;1.40;;;;;;;;;;5031092;28;21031;-16
2022/07/30 12:51:18;;;;;;;8.48;1.63;;;;;;;;;;5030304;28;21075;-16
2022/07/30 12:53:47;;;;;;;4.07;1.50;;;;;;;;;;5030759;28;20223;-16
2022/07/30 12:56:17;;;;;;;3.92;1.50;;;;;;;;;;5030933;28;20234;-16
2022/07/30 12:58:45;;;;;;;2.53;1.20;;;;;;;;;;5031058;28;20325;-16
2022/07/30 13:01:15;;;;;;;2.45;1.45;;;;;;;;;;5030834;28;20243;-16
2022/07/30 13:03:44;;;;;;;2.80;1.48;;;;;;;;;;5023090;28;21027;-16
2022/07/30 13:06:12;;;;;;;1.80;1.30;;;;;;;;;;5030730;28;20235;-16
2022/07/30 13:08:46;;;;;;;2.95;1.48;;;;;;;;;;5024462;28;20662;-15
2022/07/30 13:11:14;;;;;;;4.45;1.45;;;;;;;;;;5030597;28;20234;-16
2022/07/30 13:13:42;;;;;;;3.38;1.20;;;;;;;;;;5029732;28;20732;-15
2022/07/30 13:16:10;;;;;;;4.38;1.30;;;;;;;;;;5030822;28;20704;-16
2022/07/30 13:18:37;;;;;;;4.20;1.55;;;;;;;;;;5030393;28;20322;-16
2022/07/30 13:21:05;;;;;;;2.00;1.05;;;;;;;;;;5030424;28;20714;-16
2022/07/30 13:23:33;;;;;;;1.85;1.40;;;;;;;;;;5029930;28;21010;-16
2022/07/30 13:26:00;;;;;;;3.65;1.30;;;;;;;;;;5023354;28;20223;-16
2022/07/30 13:28:28;;;;;;;1.30;1.00;;;;;;;;;;5030376;28;20239;-15
2022/07/30 13:30:57;;;;;;;1.65;1.20;;;;;;;;;;5030252;28;20238;-16
2022/07/30 13:33:24;;;;;;;2.75;1.40;;;;;;;;;;5029658;28;20230;-16
2022/07/30 13:35:52;;;;;;;3.13;1.10;;;;;;;;;;5029529;28;20325;-16
2022/07/30 13:38:19;;;;;;;2.28;1.20;;;;;;;;;;5030314;28;21002;-16
2022/07/30 13:40:47;;;;;;;4.18;1.25;;;;;;;;;;5030136;28;21053;-16
2022/07/30 13:43:14;;;;;;;2.63;1.15;;;;;;;;;;5030019;28;20226;-16
2022/07/30 13:45:41;;;;;;;4.18;1.23;;;;;;;;;;5030446;28;20238;-15
2022/07/30 13:48:10;;;;;;;2.60;1.10;;;;;;;;;;5028948;28;20234;-16
2022/07/30 13:50:38;;;;;;;7.40;1.65;;;;;;;;;;5030262;28;20235;-16
2022/07/30 13:53:05;;;;;;;2.33;1.23;;;;;;;;;;5030184;28;20314;-16
2022/07/30 13:55:32;;;;;;;4.35;1.40;;;;;;;;;;5029786;28;20255;-16
2022/07/30 13:58:00;;;;;;;2.13;1.13;;;;;;;;;;5028944;28;20241;-16
2022/07/30 14:00:31;;;;;;;2.22;1.60;;;;;;;;;;5029814;28;20243;-16
2022/07/30 14:02:59;;;;;;;3.90;1.00;;;;;;;;;;5029789;28;20246;-16
2022/07/30 14:05:28;;;;;;;2.95;1.40;;;;;;;;;;5029676;28;20237;-16
2022/07/30 14:07:55;;;;;;;2.08;1.35;;;;;;;;;;5031913;28;20243;-16
2022/07/30 14:10:23;;;;;;;3.22;1.30;;;;;;;;;;5032269;28;20235;-16
2022/07/30 14:12:53;;;;;;;2.33;1.20;;;;;;;;;;5033474;28;20329;-16
2022/07/30 14:15:21;;;;;;;2.03;1.20;;;;;;;;;;5033113;28;20234;-16
2022/07/30 14:17:48;;;;;;;2.50;1.33;;;;;;;;;;5033403;28;20234;-16
2022/07/30 14:20:23;;;;;;;2.35;1.20;;;;;;;;;;5032516;28;20234;-16
2022/07/30 14:22:56;;;;;;;3.33;1.38;;;;;;;;;;5032334;28;20246;-16
2022/07/30 14:25:25;;;;;;;3.35;1.70;;;;;;;;;;5033333;28;20235;-16
2022/07/30 14:27:53;;;;;;;4.97;1.10;;;;;;;;;;5033227;28;20237;-16
2022/07/30 14:30:20;;;;;;;2.65;1.50;;;;;;;;;;5032205;28;20317;-15
2022/07/30 14:32:48;;;;;;;3.10;1.27;;;;;;;;;;5033000;28;20403;-16
2022/07/30 14:35:21;;;;;;;4.38;1.42;;;;;;;;;;5032962;28;20313;-16
2022/07/30 14:37:49;;;;;;;3.15;1.65;;;;;;;;;;5032105;28;20238;-16
2022/07/30 14:40:18;;;;;;;2.20;1.42;;;;;;;;;;5032570;28;20231;-16
2022/07/30 14:42:46;;;;;;;4.40;1.40;;;;;;;;;;5031895;28;20725;-16
2022/07/30 14:45:14;;;;;;;2.00;1.30;;;;;;;;;;5032774;28;20245;-16
2022/07/30 14:47:41;;;;;;;3.13;1.52;;;;;;;;;;5031822;28;20239;-16
2022/07/30 14:50:09;;;;;;;2.20;1.25;;;;;;;;;;5032590;28;20269;-16
2022/07/30 14:52:37;;;;;;;1.88;1.50;;;;;;;;;;5032026;28;20318;-16
2022/07/30 14:55:05;;;;;;;1.63;1.35;;;;;;;;;;5032591;28;20346;-16
2022/07/30 14:57:34;;;;;;;2.78;1.52;;;;;;;;;;5032298;28;20408;-16